Fayston, Vermont
Current Conditions -  °F | °C
As of 2:51 AM on Sunday 21 Dec 2014 (Local Time) from KMPV Reporting Station
Scattered Clouds Scattered Clouds  
Wind Chill: 14°   Ceiling: Unl
Heat Index: 14°   Visibility: 8mi
Dew Point: 10°   Wind: 0mph
Humidity: 84%   Direction: NA
Pressure: 30.3"   Gusts: NA
Location:  44.1924°N, 72.8443°W
Report Text: KMPV 210751Z AUTO 00000KT 8SM SCT032 M10/M12 A3030 RMK AO2 SLP283 T11001122
Loading
Personal Weather Stations






























Interactive Weather Map New forecast layout! Learn more

10-Day Weather Forecast

Advertisements
Track Severe Weather on mobile